sensor_id;sensor_type;location;lat;lon;timestamp;P1;durP1;ratioP1;P2;durP2;ratioP2
7017;SDS011;3549;42.162;24.726;2023-06-22T00:02:16;23.57;;;18.40;;
7017;SDS011;3549;42.162;24.726;2023-06-22T00:04:42;22.60;;;18.13;;
7017;SDS011;3549;42.162;24.726;2023-06-22T00:07:08;22.60;;;17.97;;
7017;SDS011;3549;42.162;24.726;2023-06-22T00:09:33;23.93;;;17.87;;
7017;SDS011;3549;42.162;24.726;2023-06-22T00:11:59;24.57;;;17.90;;
7017;SDS011;3549;42.162;24.726;2023-06-22T00:14:27;21.13;;;17.17;;
7017;SDS011;3549;42.162;24.726;2023-06-22T00:16:52;23.47;;;17.43;;
7017;SDS011;3549;42.162;24.726;2023-06-22T00:19:20;21.70;;;17.50;;
7017;SDS011;3549;42.162;24.726;2023-06-22T00:21:48;23.23;;;17.47;;
7017;SDS011;3549;42.162;24.726;2023-06-22T00:24:18;20.60;;;16.67;;
7017;SDS011;3549;42.162;24.726;2023-06-22T00:26:49;23.10;;;17.23;;
7017;SDS011;3549;42.162;24.726;2023-06-22T00:29:15;20.57;;;16.97;;
7017;SDS011;3549;42.162;24.726;2023-06-22T00:31:40;20.87;;;17.07;;
7017;SDS011;3549;42.162;24.726;2023-06-22T00:34:06;21.23;;;17.30;;
7017;SDS011;3549;42.162;24.726;2023-06-22T00:36:33;21.47;;;17.60;;
7017;SDS011;3549;42.162;24.726;2023-06-22T00:38:59;24.20;;;17.97;;
7017;SDS011;3549;42.162;24.726;2023-06-22T00:41:25;23.93;;;18.27;;
7017;SDS011;3549;42.162;24.726;2023-06-22T00:43:53;24.37;;;18.57;;
7017;SDS011;3549;42.162;24.726;2023-06-22T00:46:19;23.17;;;17.50;;
7017;SDS011;3549;42.162;24.726;2023-06-22T00:48:44;21.97;;;17.10;;
7017;SDS011;3549;42.162;24.726;2023-06-22T00:51:10;21.13;;;17.17;;
7017;SDS011;3549;42.162;24.726;2023-06-22T00:53:35;24.07;;;17.70;;
7017;SDS011;3549;42.162;24.726;2023-06-22T00:56:02;24.17;;;18.13;;
7017;SDS011;3549;42.162;24.726;2023-06-22T00:58:28;24.10;;;18.17;;
7017;SDS011;3549;42.162;24.726;2023-06-22T01:00:55;24.13;;;17.53;;
7017;SDS011;3549;42.162;24.726;2023-06-22T01:03:20;22.60;;;17.13;;
7017;SDS011;3549;42.162;24.726;2023-06-22T01:05:45;22.50;;;16.63;;
7017;SDS011;3549;42.162;24.726;2023-06-22T01:16:37;25.50;;;18.50;;
7017;SDS011;3549;42.162;24.726;2023-06-22T01:19:15;22.50;;;17.90;;
7017;SDS011;3549;42.162;24.726;2023-06-22T01:21:54;26.13;;;17.07;;
7017;SDS011;3549;42.162;24.726;2023-06-22T01:29:36;21.53;;;16.80;;
7017;SDS011;3549;42.162;24.726;2023-06-22T01:32:04;22.73;;;17.20;;
7017;SDS011;3549;42.162;24.726;2023-06-22T01:34:31;23.13;;;16.73;;
7017;SDS011;3549;42.162;24.726;2023-06-22T01:36:58;21.90;;;17.37;;
7017;SDS011;3549;42.162;24.726;2023-06-22T01:39:25;22.13;;;17.40;;
7017;SDS011;3549;42.162;24.726;2023-06-22T01:41:51;23.23;;;17.37;;
7017;SDS011;3549;42.162;24.726;2023-06-22T01:44:18;22.70;;;17.07;;
7017;SDS011;3549;42.162;24.726;2023-06-22T01:46:44;24.43;;;17.70;;
7017;SDS011;3549;42.162;24.726;2023-06-22T01:49:10;21.27;;;17.07;;
7017;SDS011;3549;42.162;24.726;2023-06-22T01:51:35;25.73;;;18.37;;
7017;SDS011;3549;42.162;24.726;2023-06-22T01:54:01;25.30;;;18.17;;
7017;SDS011;3549;42.162;24.726;2023-06-22T01:56:27;25.27;;;18.23;;
7017;SDS011;3549;42.162;24.726;2023-06-22T01:58:59;25.03;;;18.10;;
7017;SDS011;3549;42.162;24.726;2023-06-22T02:01:34;23.07;;;17.33;;
7017;SDS011;3549;42.162;24.726;2023-06-22T02:04:08;23.27;;;18.00;;
7017;SDS011;3549;42.162;24.726;2023-06-22T02:06:39;26.60;;;18.60;;
7017;SDS011;3549;42.162;24.726;2023-06-22T02:09:17;24.53;;;17.87;;
7017;SDS011;3549;42.162;24.726;2023-06-22T02:11:46;24.13;;;19.23;;
7017;SDS011;3549;42.162;24.726;2023-06-22T02:14:13;27.70;;;19.30;;
7017;SDS011;3549;42.162;24.726;2023-06-22T02:16:39;26.30;;;19.90;;
7017;SDS011;3549;42.162;24.726;2023-06-22T02:19:05;28.17;;;20.03;;
7017;SDS011;3549;42.162;24.726;2023-06-22T02:21:31;25.20;;;18.97;;
7017;SDS011;3549;42.162;24.726;2023-06-22T02:23:57;25.90;;;19.47;;
7017;SDS011;3549;42.162;24.726;2023-06-22T02:26:23;24.63;;;18.50;;
7017;SDS011;3549;42.162;24.726;2023-06-22T02:28:50;23.37;;;18.40;;
7017;SDS011;3549;42.162;24.726;2023-06-22T02:31:16;23.03;;;18.27;;
7017;SDS011;3549;42.162;24.726;2023-06-22T02:33:42;23.93;;;18.57;;
7017;SDS011;3549;42.162;24.726;2023-06-22T02:36:08;26.70;;;19.97;;
7017;SDS011;3549;42.162;24.726;2023-06-22T02:38:37;27.13;;;20.63;;
7017;SDS011;3549;42.162;24.726;2023-06-22T02:41:02;27.10;;;19.80;;
7017;SDS011;3549;42.162;24.726;2023-06-22T02:43:28;30.53;;;20.57;;
7017;SDS011;3549;42.162;24.726;2023-06-22T02:45:53;27.97;;;21.00;;
7017;SDS011;3549;42.162;24.726;2023-06-22T02:48:19;27.90;;;21.07;;
7017;SDS011;3549;42.162;24.726;2023-06-22T02:50:44;28.37;;;20.30;;
7017;SDS011;3549;42.162;24.726;2023-06-22T02:53:10;27.47;;;19.27;;
7017;SDS011;3549;42.162;24.726;2023-06-22T02:55:36;27.83;;;19.40;;
7017;SDS011;3549;42.162;24.726;2023-06-22T02:58:01;28.07;;;21.10;;
7017;SDS011;3549;42.162;24.726;2023-06-22T03:00:30;27.63;;;20.40;;
7017;SDS011;3549;42.162;24.726;2023-06-22T03:02:56;25.50;;;19.70;;
7017;SDS011;3549;42.162;24.726;2023-06-22T03:05:22;24.93;;;18.67;;
7017;SDS011;3549;42.162;24.726;2023-06-22T03:07:48;24.90;;;18.13;;
7017;SDS011;3549;42.162;24.726;2023-06-22T03:10:14;23.87;;;17.77;;
7017;SDS011;3549;42.162;24.726;2023-06-22T03:12:41;24.30;;;17.57;;
7017;SDS011;3549;42.162;24.726;2023-06-22T03:15:08;20.20;;;16.10;;
7017;SDS011;3549;42.162;24.726;2023-06-22T03:17:37;22.93;;;16.17;;
7017;SDS011;3549;42.162;24.726;2023-06-22T03:20:05;21.13;;;16.07;;
7017;SDS011;3549;42.162;24.726;2023-06-22T03:22:36;23.73;;;16.97;;
7017;SDS011;3549;42.162;24.726;2023-06-22T03:25:02;20.63;;;15.80;;
7017;SDS011;3549;42.162;24.726;2023-06-22T03:27:27;24.33;;;16.47;;
7017;SDS011;3549;42.162;24.726;2023-06-22T03:29:53;24.43;;;16.50;;
7017;SDS011;3549;42.162;24.726;2023-06-22T03:32:18;24.57;;;16.90;;
7017;SDS011;3549;42.162;24.726;2023-06-22T03:34:44;22.77;;;16.97;;
7017;SDS011;3549;42.162;24.726;2023-06-22T03:37:12;27.60;;;17.30;;
7017;SDS011;3549;42.162;24.726;2023-06-22T03:39:41;25.90;;;17.27;;
7017;SDS011;3549;42.162;24.726;2023-06-22T03:42:06;22.70;;;17.13;;
7017;SDS011;3549;42.162;24.726;2023-06-22T03:44:35;22.40;;;16.90;;
7017;SDS011;3549;42.162;24.726;2023-06-22T03:47:01;24.37;;;17.40;;
7017;SDS011;3549;42.162;24.726;2023-06-22T03:49:29;22.23;;;16.90;;
7017;SDS011;3549;42.162;24.726;2023-06-22T03:51:55;23.63;;;16.93;;
7017;SDS011;3549;42.162;24.726;2023-06-22T03:54:20;25.07;;;16.70;;
7017;SDS011;3549;42.162;24.726;2023-06-22T03:56:46;21.47;;;16.50;;
7017;SDS011;3549;42.162;24.726;2023-06-22T03:59:11;28.50;;;17.77;;
7017;SDS011;3549;42.162;24.726;2023-06-22T04:01:37;24.67;;;17.97;;
7017;SDS011;3549;42.162;24.726;2023-06-22T04:04:02;23.07;;;17.27;;
7017;SDS011;3549;42.162;24.726;2023-06-22T04:06:27;24.50;;;17.30;;
7017;SDS011;3549;42.162;24.726;2023-06-22T04:08:53;25.77;;;18.17;;
7017;SDS011;3549;42.162;24.726;2023-06-22T04:11:18;24.20;;;18.13;;
7017;SDS011;3549;42.162;24.726;2023-06-22T04:13:44;27.53;;;17.53;;
7017;SDS011;3549;42.162;24.726;2023-06-22T04:16:09;26.33;;;18.07;;
7017;SDS011;3549;42.162;24.726;2023-06-22T04:18:35;25.27;;;17.90;;
7017;SDS011;3549;42.162;24.726;2023-06-22T04:21:01;26.03;;;18.03;;
7017;SDS011;3549;42.162;24.726;2023-06-22T04:23:27;27.77;;;17.57;;
7017;SDS011;3549;42.162;24.726;2023-06-22T04:25:52;25.70;;;17.77;;
7017;SDS011;3549;42.162;24.726;2023-06-22T04:28:17;23.63;;;17.17;;
7017;SDS011;3549;42.162;24.726;2023-06-22T04:30:43;24.30;;;17.27;;
7017;SDS011;3549;42.162;24.726;2023-06-22T04:33:14;21.97;;;16.60;;
7017;SDS011;3549;42.162;24.726;2023-06-22T04:35:40;22.33;;;17.57;;
7017;SDS011;3549;42.162;24.726;2023-06-22T04:38:06;21.43;;;17.30;;
7017;SDS011;3549;42.162;24.726;2023-06-22T04:40:32;22.87;;;17.67;;
7017;SDS011;3549;42.162;24.726;2023-06-22T04:43:00;26.87;;;19.60;;
7017;SDS011;3549;42.162;24.726;2023-06-22T04:45:28;24.27;;;18.30;;
7017;SDS011;3549;42.162;24.726;2023-06-22T04:47:57;23.43;;;17.77;;
7017;SDS011;3549;42.162;24.726;2023-06-22T04:50:22;35.27;;;27.83;;
7017;SDS011;3549;42.162;24.726;2023-06-22T04:52:48;25.03;;;18.77;;
7017;SDS011;3549;42.162;24.726;2023-06-22T04:55:14;28.00;;;20.63;;
7017;SDS011;3549;42.162;24.726;2023-06-22T04:57:46;26.67;;;19.33;;
7017;SDS011;3549;42.162;24.726;2023-06-22T05:00:18;27.27;;;18.97;;
7017;SDS011;3549;42.162;24.726;2023-06-22T05:02:45;25.77;;;18.53;;
7017;SDS011;3549;42.162;24.726;2023-06-22T05:05:12;23.53;;;17.17;;
7017;SDS011;3549;42.162;24.726;2023-06-22T05:07:45;22.50;;;18.03;;
7017;SDS011;3549;42.162;24.726;2023-06-22T05:10:13;22.27;;;16.90;;
7017;SDS011;3549;42.162;24.726;2023-06-22T05:12:39;19.90;;;16.10;;
7017;SDS011;3549;42.162;24.726;2023-06-22T05:15:06;22.27;;;16.03;;
7017;SDS011;3549;42.162;24.726;2023-06-22T05:17:32;22.27;;;16.37;;
7017;SDS011;3549;42.162;24.726;2023-06-22T05:19:57;24.20;;;16.57;;
7017;SDS011;3549;42.162;24.726;2023-06-22T05:22:23;23.13;;;16.07;;
7017;SDS011;3549;42.162;24.726;2023-06-22T05:24:48;22.20;;;15.10;;
7017;SDS011;3549;42.162;24.726;2023-06-22T05:27:14;20.90;;;14.90;;
7017;SDS011;3549;42.162;24.726;2023-06-22T05:29:39;22.27;;;15.93;;
7017;SDS011;3549;42.162;24.726;2023-06-22T05:32:05;20.53;;;15.87;;
7017;SDS011;3549;42.162;24.726;2023-06-22T05:34:31;19.63;;;14.30;;
7017;SDS011;3549;42.162;24.726;2023-06-22T05:36:57;19.27;;;14.20;;
7017;SDS011;3549;42.162;24.726;2023-06-22T05:39:24;24.83;;;15.57;;
7017;SDS011;3549;42.162;24.726;2023-06-22T05:41:49;18.43;;;13.90;;
7017;SDS011;3549;42.162;24.726;2023-06-22T05:44:15;16.70;;;14.10;;
7017;SDS011;3549;42.162;24.726;2023-06-22T05:46:40;16.30;;;13.50;;
7017;SDS011;3549;42.162;24.726;2023-06-22T05:49:14;19.80;;;14.30;;
7017;SDS011;3549;42.162;24.726;2023-06-22T05:51:40;19.60;;;13.57;;
7017;SDS011;3549;42.162;24.726;2023-06-22T05:54:08;16.57;;;12.47;;
7017;SDS011;3549;42.162;24.726;2023-06-22T05:56:34;16.67;;;14.13;;
7017;SDS011;3549;42.162;24.726;2023-06-22T05:58:59;15.80;;;12.85;;
7017;SDS011;3549;42.162;24.726;2023-06-22T06:01:25;17.30;;;13.43;;
7017;SDS011;3549;42.162;24.726;2023-06-22T06:03:51;16.77;;;13.35;;
7017;SDS011;3549;42.162;24.726;2023-06-22T06:06:17;15.40;;;12.68;;
7017;SDS011;3549;42.162;24.726;2023-06-22T06:08:43;17.77;;;13.65;;
7017;SDS011;3549;42.162;24.726;2023-06-22T06:11:08;17.25;;;13.98;;
7017;SDS011;3549;42.162;24.726;2023-06-22T06:13:34;21.17;;;13.93;;
7017;SDS011;3549;42.162;24.726;2023-06-22T06:15:59;19.20;;;13.50;;
7017;SDS011;3549;42.162;24.726;2023-06-22T06:18:25;18.35;;;13.20;;
7017;SDS011;3549;42.162;24.726;2023-06-22T06:20:51;16.92;;;13.20;;
7017;SDS011;3549;42.162;24.726;2023-06-22T06:23:16;16.30;;;12.93;;
7017;SDS011;3549;42.162;24.726;2023-06-22T06:25:41;16.83;;;13.57;;
7017;SDS011;3549;42.162;24.726;2023-06-22T06:28:07;18.60;;;13.35;;
7017;SDS011;3549;42.162;24.726;2023-06-22T06:30:32;18.48;;;13.40;;
7017;SDS011;3549;42.162;24.726;2023-06-22T06:32:58;15.90;;;13.82;;
7017;SDS011;3549;42.162;24.726;2023-06-22T06:35:23;16.73;;;13.18;;
7017;SDS011;3549;42.162;24.726;2023-06-22T06:37:49;16.08;;;13.60;;
7017;SDS011;3549;42.162;24.726;2023-06-22T06:40:16;17.70;;;13.48;;
7017;SDS011;3549;42.162;24.726;2023-06-22T06:42:43;20.58;;;13.68;;
7017;SDS011;3549;42.162;24.726;2023-06-22T06:45:14;15.88;;;13.98;;
7017;SDS011;3549;42.162;24.726;2023-06-22T06:47:41;18.13;;;13.32;;
7017;SDS011;3549;42.162;24.726;2023-06-22T06:50:18;15.50;;;13.02;;
7017;SDS011;3549;42.162;24.726;2023-06-22T06:52:44;16.10;;;13.27;;
7017;SDS011;3549;42.162;24.726;2023-06-22T06:55:10;15.02;;;13.32;;
7017;SDS011;3549;42.162;24.726;2023-06-22T06:57:37;15.45;;;13.30;;
7017;SDS011;3549;42.162;24.726;2023-06-22T07:00:11;15.35;;;13.05;;
7017;SDS011;3549;42.162;24.726;2023-06-22T07:02:41;16.73;;;12.50;;
7017;SDS011;3549;42.162;24.726;2023-06-22T07:05:08;14.52;;;12.45;;
7017;SDS011;3549;42.162;24.726;2023-06-22T07:07:34;18.02;;;12.00;;
7017;SDS011;3549;42.162;24.726;2023-06-22T07:10:00;15.30;;;12.73;;
7017;SDS011;3549;42.162;24.726;2023-06-22T07:12:25;13.18;;;11.63;;
7017;SDS011;3549;42.162;24.726;2023-06-22T07:14:56;13.98;;;12.10;;
7017;SDS011;3549;42.162;24.726;2023-06-22T07:17:29;16.35;;;12.20;;
7017;SDS011;3549;42.162;24.726;2023-06-22T07:19:54;14.68;;;12.60;;
7017;SDS011;3549;42.162;24.726;2023-06-22T07:22:20;14.35;;;12.18;;
7017;SDS011;3549;42.162;24.726;2023-06-22T07:24:45;17.48;;;12.40;;
7017;SDS011;3549;42.162;24.726;2023-06-22T07:27:10;18.02;;;12.68;;
7017;SDS011;3549;42.162;24.726;2023-06-22T07:29:37;16.90;;;12.43;;
7017;SDS011;3549;42.162;24.726;2023-06-22T07:32:04;18.08;;;12.75;;
7017;SDS011;3549;42.162;24.726;2023-06-22T07:34:30;13.63;;;11.25;;
7017;SDS011;3549;42.162;24.726;2023-06-22T07:36:55;15.65;;;12.27;;
7017;SDS011;3549;42.162;24.726;2023-06-22T07:39:21;15.68;;;11.60;;
7017;SDS011;3549;42.162;24.726;2023-06-22T07:41:50;15.00;;;11.55;;
7017;SDS011;3549;42.162;24.726;2023-06-22T07:44:16;14.23;;;11.48;;
7017;SDS011;3549;42.162;24.726;2023-06-22T07:46:42;15.25;;;11.75;;
7017;SDS011;3549;42.162;24.726;2023-06-22T07:49:07;13.18;;;10.85;;
7017;SDS011;3549;42.162;24.726;2023-06-22T07:51:33;13.48;;;11.32;;
7017;SDS011;3549;42.162;24.726;2023-06-22T07:53:59;15.40;;;12.27;;
7017;SDS011;3549;42.162;24.726;2023-06-22T07:56:24;17.50;;;12.32;;
7017;SDS011;3549;42.162;24.726;2023-06-22T07:58:50;14.88;;;11.88;;
7017;SDS011;3549;42.162;24.726;2023-06-22T08:01:18;13.52;;;11.02;;
7017;SDS011;3549;42.162;24.726;2023-06-22T08:03:46;13.43;;;11.88;;
7017;SDS011;3549;42.162;24.726;2023-06-22T08:06:13;14.68;;;11.90;;
7017;SDS011;3549;42.162;24.726;2023-06-22T08:08:38;15.13;;;11.13;;
7017;SDS011;3549;42.162;24.726;2023-06-22T08:11:05;13.18;;;11.25;;
7017;SDS011;3549;42.162;24.726;2023-06-22T08:13:31;12.50;;;11.20;;
7017;SDS011;3549;42.162;24.726;2023-06-22T08:15:56;13.73;;;10.98;;
7017;SDS011;3549;42.162;24.726;2023-06-22T08:18:22;16.38;;;10.73;;
7017;SDS011;3549;42.162;24.726;2023-06-22T08:20:47;16.50;;;10.90;;
7017;SDS011;3549;42.162;24.726;2023-06-22T08:23:12;14.55;;;10.32;;
7017;SDS011;3549;42.162;24.726;2023-06-22T08:25:38;11.68;;;10.10;;
7017;SDS011;3549;42.162;24.726;2023-06-22T08:28:03;14.13;;;10.85;;
7017;SDS011;3549;42.162;24.726;2023-06-22T08:30:29;14.57;;;11.23;;
7017;SDS011;3549;42.162;24.726;2023-06-22T08:32:54;12.82;;;11.35;;
7017;SDS011;3549;42.162;24.726;2023-06-22T08:35:21;14.15;;;10.45;;
7017;SDS011;3549;42.162;24.726;2023-06-22T08:37:47;11.52;;;10.25;;
7017;SDS011;3549;42.162;24.726;2023-06-22T08:40:18;11.80;;;10.50;;
7017;SDS011;3549;42.162;24.726;2023-06-22T08:42:45;12.95;;;10.40;;
7017;SDS011;3549;42.162;24.726;2023-06-22T08:45:11;11.43;;;10.25;;
7017;SDS011;3549;42.162;24.726;2023-06-22T08:47:37;14.13;;;9.43;;
7017;SDS011;3549;42.162;24.726;2023-06-22T08:50:03;12.00;;;10.85;;
7017;SDS011;3549;42.162;24.726;2023-06-22T08:52:29;11.27;;;10.00;;
7017;SDS011;3549;42.162;24.726;2023-06-22T08:54:55;12.77;;;10.57;;
7017;SDS011;3549;42.162;24.726;2023-06-22T08:57:21;11.45;;;9.50;;
7017;SDS011;3549;42.162;24.726;2023-06-22T08:59:46;11.07;;;9.02;;
7017;SDS011;3549;42.162;24.726;2023-06-22T09:02:11;10.68;;;9.00;;
7017;SDS011;3549;42.162;24.726;2023-06-22T09:04:37;10.88;;;9.55;;
7017;SDS011;3549;42.162;24.726;2023-06-22T09:07:03;12.00;;;9.55;;
7017;SDS011;3549;42.162;24.726;2023-06-22T09:09:29;11.98;;;9.60;;
7017;SDS011;3549;42.162;24.726;2023-06-22T09:11:54;12.05;;;10.05;;
7017;SDS011;3549;42.162;24.726;2023-06-22T09:14:20;10.48;;;9.48;;
7017;SDS011;3549;42.162;24.726;2023-06-22T09:16:45;11.85;;;9.75;;
7017;SDS011;3549;42.162;24.726;2023-06-22T09:19:11;14.35;;;9.98;;
7017;SDS011;3549;42.162;24.726;2023-06-22T09:21:36;11.88;;;10.00;;
7017;SDS011;3549;42.162;24.726;2023-06-22T09:24:02;10.45;;;9.45;;
7017;SDS011;3549;42.162;24.726;2023-06-22T09:26:27;10.05;;;9.02;;
7017;SDS011;3549;42.162;24.726;2023-06-22T09:28:53;10.75;;;9.68;;
7017;SDS011;3549;42.162;24.726;2023-06-22T09:31:18;11.77;;;9.68;;
7017;SDS011;3549;42.162;24.726;2023-06-22T09:33:50;10.63;;;9.52;;
7017;SDS011;3549;42.162;24.726;2023-06-22T09:36:15;10.77;;;9.73;;
7017;SDS011;3549;42.162;24.726;2023-06-22T09:38:42;10.65;;;9.13;;
7017;SDS011;3549;42.162;24.726;2023-06-22T09:41:07;9.80;;;8.80;;
7017;SDS011;3549;42.162;24.726;2023-06-22T09:43:33;10.75;;;9.65;;
7017;SDS011;3549;42.162;24.726;2023-06-22T09:46:01;10.95;;;9.57;;
7017;SDS011;3549;42.162;24.726;2023-06-22T09:48:28;10.65;;;9.10;;
7017;SDS011;3549;42.162;24.726;2023-06-22T09:50:54;11.75;;;9.30;;
7017;SDS011;3549;42.162;24.726;2023-06-22T09:53:19;11.18;;;9.10;;
7017;SDS011;3549;42.162;24.726;2023-06-22T09:55:46;9.18;;;8.27;;
7017;SDS011;3549;42.162;24.726;2023-06-22T09:58:12;9.93;;;8.93;;
7017;SDS011;3549;42.162;24.726;2023-06-22T10:00:37;12.38;;;9.40;;
7017;SDS011;3549;42.162;24.726;2023-06-22T10:03:02;9.38;;;8.48;;
7017;SDS011;3549;42.162;24.726;2023-06-22T10:05:28;9.40;;;8.50;;
7017;SDS011;3549;42.162;24.726;2023-06-22T10:07:53;9.90;;;8.90;;
7017;SDS011;3549;42.162;24.726;2023-06-22T10:10:19;10.48;;;9.32;;
7017;SDS011;3549;42.162;24.726;2023-06-22T10:12:48;10.60;;;9.10;;
7017;SDS011;3549;42.162;24.726;2023-06-22T10:15:20;10.18;;;8.82;;
7017;SDS011;3549;42.162;24.726;2023-06-22T10:17:46;10.63;;;9.23;;
7017;SDS011;3549;42.162;24.726;2023-06-22T10:20:12;10.88;;;9.48;;
7017;SDS011;3549;42.162;24.726;2023-06-22T10:22:39;11.88;;;9.93;;
7017;SDS011;3549;42.162;24.726;2023-06-22T10:25:06;10.55;;;9.55;;
7017;SDS011;3549;42.162;24.726;2023-06-22T10:27:32;10.70;;;9.68;;
7017;SDS011;3549;42.162;24.726;2023-06-22T10:29:57;10.23;;;9.23;;
7017;SDS011;3549;42.162;24.726;2023-06-22T10:32:23;12.75;;;9.68;;
7017;SDS011;3549;42.162;24.726;2023-06-22T10:34:48;10.48;;;9.20;;
7017;SDS011;3549;42.162;24.726;2023-06-22T10:37:13;10.27;;;9.25;;
7017;SDS011;3549;42.162;24.726;2023-06-22T10:39:39;10.48;;;9.38;;
7017;SDS011;3549;42.162;24.726;2023-06-22T10:42:04;11.10;;;9.00;;
7017;SDS011;3549;42.162;24.726;2023-06-22T10:44:30;11.32;;;10.15;;
7017;SDS011;3549;42.162;24.726;2023-06-22T10:46:55;10.70;;;9.48;;
7017;SDS011;3549;42.162;24.726;2023-06-22T10:49:21;10.38;;;9.32;;
7017;SDS011;3549;42.162;24.726;2023-06-22T10:51:46;11.43;;;10.25;;
7017;SDS011;3549;42.162;24.726;2023-06-22T10:54:11;10.10;;;9.10;;
7017;SDS011;3549;42.162;24.726;2023-06-22T10:56:38;10.20;;;9.13;;
7017;SDS011;3549;42.162;24.726;2023-06-22T10:59:05;11.25;;;9.25;;
7017;SDS011;3549;42.162;24.726;2023-06-22T11:01:30;11.20;;;9.75;;
7017;SDS011;3549;42.162;24.726;2023-06-22T11:03:56;11.35;;;9.82;;
7017;SDS011;3549;42.162;24.726;2023-06-22T11:06:22;10.35;;;9.35;;
7017;SDS011;3549;42.162;24.726;2023-06-22T11:08:47;10.10;;;9.10;;
7017;SDS011;3549;42.162;24.726;2023-06-22T11:11:13;10.38;;;9.35;;
7017;SDS011;3549;42.162;24.726;2023-06-22T11:13:38;13.40;;;9.65;;
7017;SDS011;3549;42.162;24.726;2023-06-22T11:16:04;13.05;;;9.23;;
7017;SDS011;3549;42.162;24.726;2023-06-22T11:18:30;11.07;;;9.13;;
7017;SDS011;3549;42.162;24.726;2023-06-22T11:20:58;10.68;;;9.32;;
7017;SDS011;3549;42.162;24.726;2023-06-22T11:23:23;10.98;;;9.55;;
7017;SDS011;3549;42.162;24.726;2023-06-22T11:25:51;13.82;;;9.63;;
7017;SDS011;3549;42.162;24.726;2023-06-22T11:28:16;10.45;;;9.35;;
7017;SDS011;3549;42.162;24.726;2023-06-22T11:30:42;11.40;;;9.95;;
7017;SDS011;3549;42.162;24.726;2023-06-22T11:33:07;11.15;;;9.82;;
7017;SDS011;3549;42.162;24.726;2023-06-22T11:35:33;10.77;;;9.50;;
7017;SDS011;3549;42.162;24.726;2023-06-22T11:37:58;10.43;;;9.35;;
7017;SDS011;3549;42.162;24.726;2023-06-22T11:40:25;10.02;;;9.02;;
7017;SDS011;3549;42.162;24.726;2023-06-22T11:42:50;11.73;;;9.38;;
7017;SDS011;3549;42.162;24.726;2023-06-22T11:45:16;10.20;;;9.20;;
7017;SDS011;3549;42.162;24.726;2023-06-22T11:47:43;11.32;;;9.48;;
7017;SDS011;3549;42.162;24.726;2023-06-22T11:50:08;10.40;;;9.40;;
7017;SDS011;3549;42.162;24.726;2023-06-22T11:52:34;11.68;;;9.60;;
7017;SDS011;3549;42.162;24.726;2023-06-22T11:55:01;10.80;;;9.70;;
7017;SDS011;3549;42.162;24.726;2023-06-22T11:57:28;10.88;;;9.27;;
7017;SDS011;3549;42.162;24.726;2023-06-22T11:59:54;10.50;;;9.43;;
7017;SDS011;3549;42.162;24.726;2023-06-22T12:02:19;10.95;;;9.82;;
7017;SDS011;3549;42.162;24.726;2023-06-22T12:04:45;9.95;;;8.98;;
7017;SDS011;3549;42.162;24.726;2023-06-22T12:07:11;9.38;;;8.48;;
7017;SDS011;3549;42.162;24.726;2023-06-22T12:09:36;10.18;;;9.15;;
7017;SDS011;3549;42.162;24.726;2023-06-22T12:12:02;9.98;;;9.07;;
7017;SDS011;3549;42.162;24.726;2023-06-22T12:14:28;11.27;;;9.63;;
7017;SDS011;3549;42.162;24.726;2023-06-22T12:16:53;9.90;;;9.00;;
7017;SDS011;3549;42.162;24.726;2023-06-22T12:19:18;10.15;;;8.93;;
7017;SDS011;3549;42.162;24.726;2023-06-22T12:21:44;10.18;;;9.18;;
7017;SDS011;3549;42.162;24.726;2023-06-22T12:24:10;11.68;;;9.77;;
7017;SDS011;3549;42.162;24.726;2023-06-22T12:26:35;13.75;;;9.73;;
7017;SDS011;3549;42.162;24.726;2023-06-22T12:29:01;10.65;;;9.50;;
7017;SDS011;3549;42.162;24.726;2023-06-22T12:31:26;14.95;;;9.98;;
7017;SDS011;3549;42.162;24.726;2023-06-22T12:33:52;12.82;;;9.60;;
7017;SDS011;3549;42.162;24.726;2023-06-22T12:36:17;9.93;;;9.02;;
7017;SDS011;3549;42.162;24.726;2023-06-22T12:38:42;10.45;;;9.32;;
7017;SDS011;3549;42.162;24.726;2023-06-22T12:41:08;10.43;;;9.43;;
7017;SDS011;3549;42.162;24.726;2023-06-22T12:43:33;9.50;;;8.70;;
7017;SDS011;3549;42.162;24.726;2023-06-22T12:45:58;9.85;;;8.85;;
7017;SDS011;3549;42.162;24.726;2023-06-22T12:48:25;9.80;;;8.75;;
7017;SDS011;3549;42.162;24.726;2023-06-22T12:50:51;10.55;;;9.48;;
7017;SDS011;3549;42.162;24.726;2023-06-22T12:53:16;11.90;;;10.25;;
7017;SDS011;3549;42.162;24.726;2023-06-22T12:55:42;11.20;;;10.07;;
7017;SDS011;3549;42.162;24.726;2023-06-22T12:58:07;10.68;;;9.57;;
7017;SDS011;3549;42.162;24.726;2023-06-22T13:00:33;12.23;;;10.82;;
7017;SDS011;3549;42.162;24.726;2023-06-22T13:02:58;11.82;;;9.90;;
7017;SDS011;3549;42.162;24.726;2023-06-22T13:05:23;11.50;;;9.55;;
7017;SDS011;3549;42.162;24.726;2023-06-22T13:07:49;11.10;;;10.00;;
7017;SDS011;3549;42.162;24.726;2023-06-22T13:10:14;10.40;;;9.40;;
7017;SDS011;3549;42.162;24.726;2023-06-22T13:12:40;12.98;;;9.63;;
7017;SDS011;3549;42.162;24.726;2023-06-22T13:15:05;12.32;;;9.60;;
7017;SDS011;3549;42.162;24.726;2023-06-22T13:17:31;12.23;;;9.80;;
7017;SDS011;3549;42.162;24.726;2023-06-22T13:19:57;12.02;;;10.20;;
7017;SDS011;3549;42.162;24.726;2023-06-22T13:22:35;11.20;;;10.10;;
7017;SDS011;3549;42.162;24.726;2023-06-22T13:25:08;10.30;;;9.35;;
7017;SDS011;3549;42.162;24.726;2023-06-22T13:27:37;14.77;;;9.82;;
7017;SDS011;3549;42.162;24.726;2023-06-22T13:30:06;13.05;;;10.10;;
7017;SDS011;3549;42.162;24.726;2023-06-22T13:32:32;11.55;;;9.70;;
7017;SDS011;3549;42.162;24.726;2023-06-22T13:34:57;19.27;;;16.50;;
7017;SDS011;3549;42.162;24.726;2023-06-22T13:37:23;15.95;;;13.73;;
7017;SDS011;3549;42.162;24.726;2023-06-22T13:39:48;11.00;;;9.90;;
7017;SDS011;3549;42.162;24.726;2023-06-22T13:42:13;12.60;;;10.98;;
7017;SDS011;3549;42.162;24.726;2023-06-22T13:44:39;14.18;;;10.50;;
7017;SDS011;3549;42.162;24.726;2023-06-22T13:47:05;16.05;;;11.43;;
7017;SDS011;3549;42.162;24.726;2023-06-22T13:49:31;14.48;;;10.75;;
7017;SDS011;3549;42.162;24.726;2023-06-22T13:51:57;13.85;;;11.52;;
7017;SDS011;3549;42.162;24.726;2023-06-22T13:54:22;16.98;;;10.68;;
7017;SDS011;3549;42.162;24.726;2023-06-22T13:56:48;12.75;;;11.20;;
7017;SDS011;3549;42.162;24.726;2023-06-22T13:59:13;14.10;;;10.90;;
7017;SDS011;3549;42.162;24.726;2023-06-22T14:01:38;12.75;;;10.85;;
7017;SDS011;3549;42.162;24.726;2023-06-22T14:04:05;13.10;;;10.75;;
7017;SDS011;3549;42.162;24.726;2023-06-22T14:06:30;12.93;;;10.75;;
7017;SDS011;3549;42.162;24.726;2023-06-22T14:08:56;14.30;;;11.23;;
7017;SDS011;3549;42.162;24.726;2023-06-22T14:11:21;12.02;;;10.68;;
7017;SDS011;3549;42.162;24.726;2023-06-22T14:13:46;12.75;;;10.60;;
7017;SDS011;3549;42.162;24.726;2023-06-22T14:16:12;11.63;;;10.40;;
7017;SDS011;3549;42.162;24.726;2023-06-22T14:18:37;13.20;;;10.65;;
7017;SDS011;3549;42.162;24.726;2023-06-22T14:21:03;13.55;;;11.02;;
7017;SDS011;3549;42.162;24.726;2023-06-22T14:23:28;13.15;;;10.88;;
7017;SDS011;3549;42.162;24.726;2023-06-22T14:25:53;14.38;;;10.77;;
7017;SDS011;3549;42.162;24.726;2023-06-22T14:28:19;13.43;;;11.07;;
7017;SDS011;3549;42.162;24.726;2023-06-22T14:30:44;14.57;;;10.57;;
7017;SDS011;3549;42.162;24.726;2023-06-22T14:33:10;13.02;;;11.20;;
7017;SDS011;3549;42.162;24.726;2023-06-22T14:35:36;14.82;;;10.82;;
7017;SDS011;3549;42.162;24.726;2023-06-22T14:38:02;11.88;;;10.20;;
7017;SDS011;3549;42.162;24.726;2023-06-22T14:40:27;14.25;;;11.30;;
7017;SDS011;3549;42.162;24.726;2023-06-22T14:42:52;18.08;;;14.23;;
7017;SDS011;3549;42.162;24.726;2023-06-22T14:45:18;15.45;;;12.55;;
7017;SDS011;3549;42.162;24.726;2023-06-22T14:47:43;18.52;;;12.18;;